»·PEaware :: HAL8833 PHNL-PHKO

HAL8833 :: PHNL-PHKO

FLIGHT INFORMATION

Flight Status: Arrived
Operator:
Hawaiian Airlines
More flights by this operator :: More flights under this callsign
Pilot: Cooper L. (8467)
Aircraft: MCDONNELL-DOUGLAS MD-88
(MD88)
More flights by this aircraft type
Origin: PHNL Honolulu Intl
United States
Destination: PHKO Kona Intl At Keahole
United States
More flights between these airports :: More routes between these airports
Route: MKK4 MKK KAYAK5
File this flight plan on PilotEdge
Remarks:
Altitude:
(Current/Filed)
18,000ft
Speed:
(Current/Filed)
400kts
Departed: 12-Dec-15 01:24 PM
Arrived: 12-Dec-15 02:04 PM
Distance/Time
Traveled:
142nm/0:40
Distance/Time
To Go:
Arrived

Flight Plot

Page will automatically refresh every two minutes.


Map Options




Map Legend


Flown Route
Filed Route
Departure Airport
Arrival Airport
Navaid (VOR, NDB)
Fix

Horizontal Profiles

Position Reports

Time Latitude Longitude Heading Altitude Ground
Speed
12-Dec-15 13:13 21.326431 -157.923068 148 19ft 0kts
12-Dec-15 13:14 21.326431 -157.923068 148 19ft 0kts
12-Dec-15 13:15 21.322590 -157.920693 149 19ft 16kts
12-Dec-15 13:16 21.320496 -157.919418 150 19ft 22kts
12-Dec-15 13:17 21.317975 -157.918473 217 19ft 9kts
12-Dec-15 13:18 21.314651 -157.923185 231 19ft 19kts
12-Dec-15 13:19 21.312929 -157.925998 286 19ft 3kts
12-Dec-15 13:20 21.314304 -157.926532 40 19ft 3kts
12-Dec-15 13:21 21.316154 -157.923952 52 19ft 77kts
12-Dec-15 13:22 21.323715 -157.913227 52 48ft 164kts
12-Dec-15 13:23 21.324086 -157.876507 183 1780ft 225kts
12-Dec-15 13:24 21.277084 -157.914408 212 5242ft 220kts
12-Dec-15 13:25 21.216932 -157.900689 129 6343ft 294kts
12-Dec-15 13:26 21.208719 -157.822227 69 8780ft 298kts
12-Dec-15 13:27 21.231596 -157.737313 69 10144ft 351kts
12-Dec-15 13:28 21.244311 -157.631856 98 12143ft 389kts
12-Dec-15 13:29 21.220191 -157.520467 101 14263ft 407kts
12-Dec-15 13:30 21.193076 -157.403591 101 16259ft 423kts
12-Dec-15 13:31 21.164772 -157.281404 102 17959ft 435kts
12-Dec-15 13:32 21.134020 -157.158158 117 18137ft 438kts
12-Dec-15 13:33 21.078427 -157.045552 117 18153ft 438kts
12-Dec-15 13:34 21.025553 -156.937906 117 18168ft 438kts
12-Dec-15 13:35 20.971315 -156.827696 117 18168ft 438kts
12-Dec-15 13:36 20.916543 -156.716627 117 18155ft 437kts
12-Dec-15 13:37 20.862428 -156.607107 117 18141ft 437kts
12-Dec-15 13:38 20.809089 -156.499374 117 18134ft 437kts
12-Dec-15 13:39 20.753663 -156.387651 117 18133ft 437kts
12-Dec-15 13:40 20.700983 -156.281335 117 18123ft 436kts
12-Dec-15 13:41 20.650042 -156.179024 117 17449ft 386kts
12-Dec-15 13:42 20.609958 -156.098671 117 16888ft 381kts
12-Dec-15 13:43 20.543507 -156.024938 176 16312ft 357kts
12-Dec-15 13:44 20.450673 -156.022628 188 14743ft 340kts
12-Dec-15 13:45 20.360881 -156.025272 188 12996ft 329kts
12-Dec-15 13:46 20.275237 -156.027905 187 10927ft 320kts
12-Dec-15 13:47 20.190441 -156.030522 185 8057ft 313kts
12-Dec-15 13:48 20.108350 -156.033044 184 5166ft 302kts
12-Dec-15 13:49 20.032731 -156.035305 183 3775ft 259kts
12-Dec-15 13:50 19.962510 -156.037455 183 3377ft 258kts
12-Dec-15 13:51 19.895931 -156.051865 208 2590ft 252kts
12-Dec-15 13:52 19.839007 -156.053765 148 1846ft 210kts
12-Dec-15 13:53 19.783004 -156.041522 195 612ft 249kts
12-Dec-15 13:54 19.727983 -156.050835 224 1024ft 209kts
12-Dec-15 13:55 19.759484 -156.088570 14 2251ft 256kts
12-Dec-15 13:56 19.824933 -156.075056 5 2647ft 211kts
12-Dec-15 13:57 19.837499 -156.039653 146 1473ft 165kts
12-Dec-15 13:58 19.819287 -156.037616 193 1038ft 157kts
12-Dec-15 13:59 19.780370 -156.042225 184 457ft 143kts
12-Dec-15 14:00 19.745758 -156.044956 176 51ft 64kts
12-Dec-15 14:01 19.741611 -156.045330 176 51ft 11kts
12-Dec-15 14:02 19.740953 -156.042737 152 51ft 7kts
12-Dec-15 14:03 19.739819 -156.042709 182 51ft 0kts
12-Dec-15 14:04 19.738191 -156.042336 192 51ft 21kts
12-Dec-15 14:05 19.735557 -156.041635 95 51ft 7kts
12-Dec-15 14:06 19.735204 -156.040562 169 51ft 0kts

Navigation Log

Ident Type
1. PHNL Airport
2. MKK Navaid
3. TAMMI Fix
4. KAYAK Fix
5. PHKO Airport